sensor_id;sensor_type;location;lat;lon;timestamp;P1;durP1;ratioP1;P2;durP2;ratioP2
19547;SDS011;9919;58.014;11.826;2022-09-09T00:00:18;0.35;;;0.35;;
19547;SDS011;9919;58.014;11.826;2022-09-09T00:02:24;0.45;;;0.45;;
19547;SDS011;9919;58.014;11.826;2022-09-09T00:04:33;0.35;;;0.35;;
19547;SDS011;9919;58.014;11.826;2022-09-09T00:06:43;0.55;;;0.28;;
19547;SDS011;9919;58.014;11.826;2022-09-09T00:11:15;0.25;;;0.25;;
19547;SDS011;9919;58.014;11.826;2022-09-09T00:13:24;0.63;;;0.45;;
19547;SDS011;9919;58.014;11.826;2022-09-09T00:15:35;0.52;;;0.38;;
19547;SDS011;9919;58.014;11.826;2022-09-09T00:20:03;0.20;;;0.20;;
19547;SDS011;9919;58.014;11.826;2022-09-09T00:24:23;0.40;;;0.40;;
19547;SDS011;9919;58.014;11.826;2022-09-09T00:28:51;0.32;;;0.30;;
19547;SDS011;9919;58.014;11.826;2022-09-09T00:31:00;0.30;;;0.30;;
19547;SDS011;9919;58.014;11.826;2022-09-09T00:33:12;0.95;;;0.45;;
19547;SDS011;9919;58.014;11.826;2022-09-09T00:35:36;0.30;;;0.30;;
19547;SDS011;9919;58.014;11.826;2022-09-09T00:37:43;0.40;;;0.40;;
19547;SDS011;9919;58.014;11.826;2022-09-09T00:39:47;0.43;;;0.43;;
19547;SDS011;9919;58.014;11.826;2022-09-09T00:42:02;0.32;;;0.32;;
19547;SDS011;9919;58.014;11.826;2022-09-09T00:49:21;0.20;;;0.20;;
19547;SDS011;9919;58.014;11.826;2022-09-09T00:58:14;0.40;;;0.40;;
19547;SDS011;9919;58.014;11.826;2022-09-09T01:00:23;0.20;;;0.20;;
19547;SDS011;9919;58.014;11.826;2022-09-09T01:02:28;0.30;;;0.30;;
19547;SDS011;9919;58.014;11.826;2022-09-09T01:04:38;0.40;;;0.40;;
19547;SDS011;9919;58.014;11.826;2022-09-09T01:06:42;0.30;;;0.30;;
19547;SDS011;9919;58.014;11.826;2022-09-09T01:11:25;0.30;;;0.30;;
19547;SDS011;9919;58.014;11.826;2022-09-09T01:13:33;0.30;;;0.30;;
19547;SDS011;9919;58.014;11.826;2022-09-09T01:15:36;0.30;;;0.30;;
19547;SDS011;9919;58.014;11.826;2022-09-09T01:17:46;0.40;;;0.40;;
19547;SDS011;9919;58.014;11.826;2022-09-09T01:19:57;0.43;;;0.43;;
19547;SDS011;9919;58.014;11.826;2022-09-09T01:24:44;0.32;;;0.32;;
19547;SDS011;9919;58.014;11.826;2022-09-09T01:27:07;0.30;;;0.30;;
19547;SDS011;9919;58.014;11.826;2022-09-09T01:29:13;0.38;;;0.38;;
19547;SDS011;9919;58.014;11.826;2022-09-09T01:31:29;0.30;;;0.30;;
19547;SDS011;9919;58.014;11.826;2022-09-09T01:33:33;0.30;;;0.30;;
19547;SDS011;9919;58.014;11.826;2022-09-09T01:38:12;0.20;;;0.20;;
19547;SDS011;9919;58.014;11.826;2022-09-09T01:40:15;0.22;;;0.22;;
19547;SDS011;9919;58.014;11.826;2022-09-09T01:42:17;0.30;;;0.30;;
19547;SDS011;9919;58.014;11.826;2022-09-09T01:44:19;0.38;;;0.38;;
19547;SDS011;9919;58.014;11.826;2022-09-09T01:46:21;0.30;;;0.30;;
19547;SDS011;9919;58.014;11.826;2022-09-09T01:48:26;0.40;;;0.40;;
19547;SDS011;9919;58.014;11.826;2022-09-09T01:50:30;0.40;;;0.40;;
19547;SDS011;9919;58.014;11.826;2022-09-09T01:52:31;0.38;;;0.38;;
19547;SDS011;9919;58.014;11.826;2022-09-09T01:54:34;0.30;;;0.30;;
19547;SDS011;9919;58.014;11.826;2022-09-09T01:56:58;0.43;;;0.32;;
19547;SDS011;9919;58.014;11.826;2022-09-09T02:04:18;0.88;;;0.30;;
19547;SDS011;9919;58.014;11.826;2022-09-09T02:08:47;1.75;;;0.45;;
19547;SDS011;9919;58.014;11.826;2022-09-09T02:10:54;0.22;;;0.22;;
19547;SDS011;9919;58.014;11.826;2022-09-09T02:13:07;2.28;;;0.35;;
19547;SDS011;9919;58.014;11.826;2022-09-09T02:15:16;0.98;;;0.30;;
19547;SDS011;9919;58.014;11.826;2022-09-09T02:17:28;0.40;;;0.40;;
19547;SDS011;9919;58.014;11.826;2022-09-09T02:19:39;0.22;;;0.22;;
19547;SDS011;9919;58.014;11.826;2022-09-09T02:21:43;0.30;;;0.30;;
19547;SDS011;9919;58.014;11.826;2022-09-09T02:23:46;0.22;;;0.22;;
19547;SDS011;9919;58.014;11.826;2022-09-09T02:25:51;2.92;;;0.50;;
19547;SDS011;9919;58.014;11.826;2022-09-09T02:27:54;0.30;;;0.30;;
19547;SDS011;9919;58.014;11.826;2022-09-09T02:29:58;0.80;;;0.50;;
19547;SDS011;9919;58.014;11.826;2022-09-09T02:32:03;0.30;;;0.30;;
19547;SDS011;9919;58.014;11.826;2022-09-09T02:34:08;0.38;;;0.38;;
19547;SDS011;9919;58.014;11.826;2022-09-09T02:36:12;0.90;;;0.45;;
19547;SDS011;9919;58.014;11.826;2022-09-09T02:38:18;0.30;;;0.30;;
19547;SDS011;9919;58.014;11.826;2022-09-09T02:40:21;0.35;;;0.35;;
19547;SDS011;9919;58.014;11.826;2022-09-09T02:42:22;0.28;;;0.28;;
19547;SDS011;9919;58.014;11.826;2022-09-09T02:44:24;0.32;;;0.32;;
19547;SDS011;9919;58.014;11.826;2022-09-09T02:46:43;0.30;;;0.30;;
19547;SDS011;9919;58.014;11.826;2022-09-09T02:48:59;0.28;;;0.28;;
19547;SDS011;9919;58.014;11.826;2022-09-09T02:53:35;0.32;;;0.32;;
19547;SDS011;9919;58.014;11.826;2022-09-09T02:55:48;0.20;;;0.20;;
19547;SDS011;9919;58.014;11.826;2022-09-09T02:58:32;0.28;;;0.28;;
19547;SDS011;9919;58.014;11.826;2022-09-09T03:00:36;0.30;;;0.30;;
19547;SDS011;9919;58.014;11.826;2022-09-09T03:02:39;0.20;;;0.20;;
19547;SDS011;9919;58.014;11.826;2022-09-09T03:04:42;0.30;;;0.30;;
19547;SDS011;9919;58.014;11.826;2022-09-09T03:06:44;0.30;;;0.30;;
19547;SDS011;9919;58.014;11.826;2022-09-09T03:08:47;0.17;;;0.17;;
19547;SDS011;9919;58.014;11.826;2022-09-09T03:10:49;0.30;;;0.30;;
19547;SDS011;9919;58.014;11.826;2022-09-09T03:12:52;1.23;;;0.47;;
19547;SDS011;9919;58.014;11.826;2022-09-09T03:14:53;0.47;;;0.47;;
19547;SDS011;9919;58.014;11.826;2022-09-09T03:16:55;0.20;;;0.20;;
19547;SDS011;9919;58.014;11.826;2022-09-09T03:19:00;0.30;;;0.30;;
19547;SDS011;9919;58.014;11.826;2022-09-09T03:21:02;0.30;;;0.30;;
19547;SDS011;9919;58.014;11.826;2022-09-09T03:23:04;1.20;;;0.30;;
19547;SDS011;9919;58.014;11.826;2022-09-09T03:25:07;0.65;;;0.30;;
19547;SDS011;9919;58.014;11.826;2022-09-09T03:27:08;1.00;;;0.43;;
19547;SDS011;9919;58.014;11.826;2022-09-09T03:29:10;0.30;;;0.30;;
19547;SDS011;9919;58.014;11.826;2022-09-09T03:31:12;0.38;;;0.38;;
19547;SDS011;9919;58.014;11.826;2022-09-09T03:33:14;0.30;;;0.30;;
19547;SDS011;9919;58.014;11.826;2022-09-09T03:35:16;0.40;;;0.40;;
19547;SDS011;9919;58.014;11.826;2022-09-09T03:37:18;0.20;;;0.20;;
19547;SDS011;9919;58.014;11.826;2022-09-09T03:39:20;0.30;;;0.30;;
19547;SDS011;9919;58.014;11.826;2022-09-09T03:41:21;0.30;;;0.30;;
19547;SDS011;9919;58.014;11.826;2022-09-09T03:43:24;0.20;;;0.20;;
19547;SDS011;9919;58.014;11.826;2022-09-09T03:45:28;0.32;;;0.32;;
19547;SDS011;9919;58.014;11.826;2022-09-09T03:47:30;0.20;;;0.20;;
19547;SDS011;9919;58.014;11.826;2022-09-09T03:49:32;0.40;;;0.40;;
19547;SDS011;9919;58.014;11.826;2022-09-09T03:51:34;0.28;;;0.28;;
19547;SDS011;9919;58.014;11.826;2022-09-09T03:53:36;0.30;;;0.30;;
19547;SDS011;9919;58.014;11.826;2022-09-09T03:55:38;0.50;;;0.50;;
19547;SDS011;9919;58.014;11.826;2022-09-09T03:57:43;0.47;;;0.47;;
19547;SDS011;9919;58.014;11.826;2022-09-09T03:59:46;0.20;;;0.20;;
19547;SDS011;9919;58.014;11.826;2022-09-09T04:01:47;0.20;;;0.20;;
19547;SDS011;9919;58.014;11.826;2022-09-09T04:03:48;0.40;;;0.40;;
19547;SDS011;9919;58.014;11.826;2022-09-09T04:05:51;0.20;;;0.20;;
19547;SDS011;9919;58.014;11.826;2022-09-09T04:07:54;0.20;;;0.20;;
19547;SDS011;9919;58.014;11.826;2022-09-09T04:09:57;0.30;;;0.30;;
19547;SDS011;9919;58.014;11.826;2022-09-09T04:11:58;0.55;;;0.43;;
19547;SDS011;9919;58.014;11.826;2022-09-09T04:14:01;0.50;;;0.50;;
19547;SDS011;9919;58.014;11.826;2022-09-09T04:16:06;0.30;;;0.30;;
19547;SDS011;9919;58.014;11.826;2022-09-09T04:18:08;0.98;;;0.40;;
19547;SDS011;9919;58.014;11.826;2022-09-09T04:20:10;0.40;;;0.40;;
19547;SDS011;9919;58.014;11.826;2022-09-09T04:22:12;0.40;;;0.40;;
19547;SDS011;9919;58.014;11.826;2022-09-09T04:24:13;0.50;;;0.50;;
19547;SDS011;9919;58.014;11.826;2022-09-09T04:26:16;0.32;;;0.28;;
19547;SDS011;9919;58.014;11.826;2022-09-09T04:28:19;0.40;;;0.40;;
19547;SDS011;9919;58.014;11.826;2022-09-09T04:30:22;0.32;;;0.32;;
19547;SDS011;9919;58.014;11.826;2022-09-09T04:32:25;0.20;;;0.20;;
19547;SDS011;9919;58.014;11.826;2022-09-09T04:34:27;0.20;;;0.20;;
19547;SDS011;9919;58.014;11.826;2022-09-09T04:36:29;0.32;;;0.32;;
19547;SDS011;9919;58.014;11.826;2022-09-09T04:38:34;0.40;;;0.40;;
19547;SDS011;9919;58.014;11.826;2022-09-09T04:40:36;0.30;;;0.30;;
19547;SDS011;9919;58.014;11.826;2022-09-09T04:42:42;0.30;;;0.30;;
19547;SDS011;9919;58.014;11.826;2022-09-09T04:44:44;0.38;;;0.38;;
19547;SDS011;9919;58.014;11.826;2022-09-09T04:46:46;0.30;;;0.30;;
19547;SDS011;9919;58.014;11.826;2022-09-09T04:48:49;0.38;;;0.38;;
19547;SDS011;9919;58.014;11.826;2022-09-09T04:53:01;0.20;;;0.20;;
19547;SDS011;9919;58.014;11.826;2022-09-09T04:55:04;0.20;;;0.20;;
19547;SDS011;9919;58.014;11.826;2022-09-09T04:57:07;0.30;;;0.30;;
19547;SDS011;9919;58.014;11.826;2022-09-09T04:59:11;0.40;;;0.40;;
19547;SDS011;9919;58.014;11.826;2022-09-09T05:01:15;0.20;;;0.20;;
19547;SDS011;9919;58.014;11.826;2022-09-09T05:03:17;0.90;;;0.40;;
19547;SDS011;9919;58.014;11.826;2022-09-09T05:05:20;0.20;;;0.20;;
19547;SDS011;9919;58.014;11.826;2022-09-09T05:07:22;0.35;;;0.35;;
19547;SDS011;9919;58.014;11.826;2022-09-09T05:09:23;0.30;;;0.30;;
19547;SDS011;9919;58.014;11.826;2022-09-09T05:11:27;0.20;;;0.20;;
19547;SDS011;9919;58.014;11.826;2022-09-09T05:13:30;0.28;;;0.28;;
19547;SDS011;9919;58.014;11.826;2022-09-09T05:15:31;0.43;;;0.40;;
19547;SDS011;9919;58.014;11.826;2022-09-09T05:17:33;0.32;;;0.32;;
19547;SDS011;9919;58.014;11.826;2022-09-09T05:19:35;0.38;;;0.38;;
19547;SDS011;9919;58.014;11.826;2022-09-09T05:21:36;0.95;;;0.30;;
19547;SDS011;9919;58.014;11.826;2022-09-09T05:23:38;0.28;;;0.28;;
19547;SDS011;9919;58.014;11.826;2022-09-09T05:25:40;0.22;;;0.22;;
19547;SDS011;9919;58.014;11.826;2022-09-09T05:27:42;0.22;;;0.22;;
19547;SDS011;9919;58.014;11.826;2022-09-09T05:29:44;0.50;;;0.50;;
19547;SDS011;9919;58.014;11.826;2022-09-09T05:31:46;0.45;;;0.40;;
19547;SDS011;9919;58.014;11.826;2022-09-09T05:33:48;1.27;;;0.93;;
19547;SDS011;9919;58.014;11.826;2022-09-09T05:35:54;0.45;;;0.45;;
19547;SDS011;9919;58.014;11.826;2022-09-09T05:37:59;0.38;;;0.38;;
19547;SDS011;9919;58.014;11.826;2022-09-09T05:40:00;0.20;;;0.20;;
19547;SDS011;9919;58.014;11.826;2022-09-09T05:42:02;0.38;;;0.38;;
19547;SDS011;9919;58.014;11.826;2022-09-09T05:44:04;0.20;;;0.20;;
19547;SDS011;9919;58.014;11.826;2022-09-09T05:46:07;0.30;;;0.30;;
19547;SDS011;9919;58.014;11.826;2022-09-09T05:48:10;0.47;;;0.47;;
19547;SDS011;9919;58.014;11.826;2022-09-09T05:50:11;0.30;;;0.30;;
19547;SDS011;9919;58.014;11.826;2022-09-09T05:52:15;2.15;;;0.40;;
19547;SDS011;9919;58.014;11.826;2022-09-09T05:54:16;0.30;;;0.30;;
19547;SDS011;9919;58.014;11.826;2022-09-09T05:56:20;0.20;;;0.20;;
19547;SDS011;9919;58.014;11.826;2022-09-09T05:58:25;0.35;;;0.35;;
19547;SDS011;9919;58.014;11.826;2022-09-09T06:00:26;0.45;;;0.45;;
19547;SDS011;9919;58.014;11.826;2022-09-09T06:02:31;0.50;;;0.50;;
19547;SDS011;9919;58.014;11.826;2022-09-09T06:04:33;0.30;;;0.30;;
19547;SDS011;9919;58.014;11.826;2022-09-09T06:06:35;0.25;;;0.25;;
19547;SDS011;9919;58.014;11.826;2022-09-09T06:08:40;0.52;;;0.52;;
19547;SDS011;9919;58.014;11.826;2022-09-09T06:10:44;0.40;;;0.40;;
19547;SDS011;9919;58.014;11.826;2022-09-09T06:12:45;1.45;;;0.35;;
19547;SDS011;9919;58.014;11.826;2022-09-09T06:14:46;0.28;;;0.28;;
19547;SDS011;9919;58.014;11.826;2022-09-09T06:16:51;0.20;;;0.20;;
19547;SDS011;9919;58.014;11.826;2022-09-09T06:18:53;0.32;;;0.32;;
19547;SDS011;9919;58.014;11.826;2022-09-09T06:21:00;0.88;;;0.68;;
19547;SDS011;9919;58.014;11.826;2022-09-09T06:23:06;0.55;;;0.40;;
19547;SDS011;9919;58.014;11.826;2022-09-09T06:25:08;0.32;;;0.32;;
19547;SDS011;9919;58.014;11.826;2022-09-09T06:27:10;1.08;;;0.47;;
19547;SDS011;9919;58.014;11.826;2022-09-09T06:29:13;1.20;;;0.30;;
19547;SDS011;9919;58.014;11.826;2022-09-09T06:31:16;0.52;;;0.52;;
19547;SDS011;9919;58.014;11.826;2022-09-09T06:33:21;0.50;;;0.50;;
19547;SDS011;9919;58.014;11.826;2022-09-09T06:35:22;0.35;;;0.35;;
19547;SDS011;9919;58.014;11.826;2022-09-09T06:37:24;0.40;;;0.40;;
19547;SDS011;9919;58.014;11.826;2022-09-09T06:39:26;0.35;;;0.35;;
19547;SDS011;9919;58.014;11.826;2022-09-09T06:41:29;0.38;;;0.38;;
19547;SDS011;9919;58.014;11.826;2022-09-09T06:43:31;2.92;;;0.40;;
19547;SDS011;9919;58.014;11.826;2022-09-09T06:45:33;0.40;;;0.40;;
19547;SDS011;9919;58.014;11.826;2022-09-09T06:47:36;0.40;;;0.40;;
19547;SDS011;9919;58.014;11.826;2022-09-09T06:49:37;0.40;;;0.40;;
19547;SDS011;9919;58.014;11.826;2022-09-09T06:51:39;0.20;;;0.20;;
19547;SDS011;9919;58.014;11.826;2022-09-09T06:53:43;0.30;;;0.30;;
19547;SDS011;9919;58.014;11.826;2022-09-09T06:55:45;0.43;;;0.30;;
19547;SDS011;9919;58.014;11.826;2022-09-09T06:57:46;0.40;;;0.40;;
19547;SDS011;9919;58.014;11.826;2022-09-09T06:59:48;0.20;;;0.20;;
19547;SDS011;9919;58.014;11.826;2022-09-09T07:01:50;0.70;;;0.40;;
19547;SDS011;9919;58.014;11.826;2022-09-09T07:03:56;0.45;;;0.45;;
19547;SDS011;9919;58.014;11.826;2022-09-09T07:05:58;0.20;;;0.20;;
19547;SDS011;9919;58.014;11.826;2022-09-09T07:08:01;0.30;;;0.30;;
19547;SDS011;9919;58.014;11.826;2022-09-09T07:10:02;0.30;;;0.30;;
19547;SDS011;9919;58.014;11.826;2022-09-09T07:12:04;0.28;;;0.28;;
19547;SDS011;9919;58.014;11.826;2022-09-09T07:14:06;0.60;;;0.60;;
19547;SDS011;9919;58.014;11.826;2022-09-09T07:16:12;1.08;;;0.50;;
19547;SDS011;9919;58.014;11.826;2022-09-09T07:18:15;0.20;;;0.20;;
19547;SDS011;9919;58.014;11.826;2022-09-09T07:20:17;0.30;;;0.30;;
19547;SDS011;9919;58.014;11.826;2022-09-09T07:22:19;0.38;;;0.38;;
19547;SDS011;9919;58.014;11.826;2022-09-09T07:24:21;0.20;;;0.20;;
19547;SDS011;9919;58.014;11.826;2022-09-09T07:26:24;0.22;;;0.22;;
19547;SDS011;9919;58.014;11.826;2022-09-09T07:28:27;0.30;;;0.30;;
19547;SDS011;9919;58.014;11.826;2022-09-09T07:30:30;0.35;;;0.35;;
19547;SDS011;9919;58.014;11.826;2022-09-09T07:32:32;0.20;;;0.20;;
19547;SDS011;9919;58.014;11.826;2022-09-09T07:34:34;0.30;;;0.30;;
19547;SDS011;9919;58.014;11.826;2022-09-09T07:36:36;0.22;;;0.22;;
19547;SDS011;9919;58.014;11.826;2022-09-09T07:38:39;0.20;;;0.20;;
19547;SDS011;9919;58.014;11.826;2022-09-09T07:40:43;0.30;;;0.30;;
19547;SDS011;9919;58.014;11.826;2022-09-09T07:42:45;0.30;;;0.30;;
19547;SDS011;9919;58.014;11.826;2022-09-09T07:44:47;0.30;;;0.30;;
19547;SDS011;9919;58.014;11.826;2022-09-09T07:46:49;0.20;;;0.20;;
19547;SDS011;9919;58.014;11.826;2022-09-09T07:48:53;0.30;;;0.30;;
19547;SDS011;9919;58.014;11.826;2022-09-09T07:51:06;0.98;;;0.30;;
19547;SDS011;9919;58.014;11.826;2022-09-09T07:53:18;1.33;;;0.60;;
19547;SDS011;9919;58.014;11.826;2022-09-09T07:55:20;3.08;;;0.80;;
19547;SDS011;9919;58.014;11.826;2022-09-09T07:57:25;1.27;;;0.50;;
19547;SDS011;9919;58.014;11.826;2022-09-09T07:59:27;1.00;;;0.68;;
19547;SDS011;9919;58.014;11.826;2022-09-09T08:01:30;1.10;;;1.00;;
19547;SDS011;9919;58.014;11.826;2022-09-09T08:03:38;1.55;;;0.95;;
19547;SDS011;9919;58.014;11.826;2022-09-09T08:05:40;1.15;;;1.15;;
19547;SDS011;9919;58.014;11.826;2022-09-09T08:07:43;1.75;;;1.33;;
19547;SDS011;9919;58.014;11.826;2022-09-09T08:09:44;1.50;;;1.27;;
19547;SDS011;9919;58.014;11.826;2022-09-09T08:11:46;1.33;;;1.15;;
19547;SDS011;9919;58.014;11.826;2022-09-09T08:13:49;2.75;;;1.27;;
19547;SDS011;9919;58.014;11.826;2022-09-09T08:15:51;2.75;;;1.42;;
19547;SDS011;9919;58.014;11.826;2022-09-09T08:17:53;8.63;;;1.65;;
19547;SDS011;9919;58.014;11.826;2022-09-09T08:19:54;1.92;;;1.00;;
19547;SDS011;9919;58.014;11.826;2022-09-09T08:21:56;1.50;;;1.10;;
19547;SDS011;9919;58.014;11.826;2022-09-09T08:23:59;2.75;;;1.10;;
19547;SDS011;9919;58.014;11.826;2022-09-09T08:26:10;1.50;;;1.02;;
19547;SDS011;9919;58.014;11.826;2022-09-09T08:28:13;1.23;;;1.13;;
19547;SDS011;9919;58.014;11.826;2022-09-09T08:30:15;3.22;;;1.13;;
19547;SDS011;9919;58.014;11.826;2022-09-09T08:32:16;1.20;;;1.05;;
19547;SDS011;9919;58.014;11.826;2022-09-09T08:34:19;1.38;;;1.13;;
19547;SDS011;9919;58.014;11.826;2022-09-09T08:36:23;1.70;;;1.23;;
19547;SDS011;9919;58.014;11.826;2022-09-09T08:38:26;4.50;;;1.30;;
19547;SDS011;9919;58.014;11.826;2022-09-09T08:40:29;1.70;;;1.38;;
19547;SDS011;9919;58.014;11.826;2022-09-09T08:42:36;1.30;;;1.20;;
19547;SDS011;9919;58.014;11.826;2022-09-09T08:44:47;2.42;;;1.35;;
19547;SDS011;9919;58.014;11.826;2022-09-09T08:47:42;2.55;;;1.70;;
19547;SDS011;9919;58.014;11.826;2022-09-09T08:51:32;1.90;;;0.90;;
19547;SDS011;9919;58.014;11.826;2022-09-09T08:53:38;2.00;;;1.13;;
19547;SDS011;9919;58.014;11.826;2022-09-09T08:55:54;0.95;;;0.95;;
19547;SDS011;9919;58.014;11.826;2022-09-09T08:58:04;1.42;;;1.10;;
19547;SDS011;9919;58.014;11.826;2022-09-09T09:00:20;3.40;;;1.25;;
19547;SDS011;9919;58.014;11.826;2022-09-09T09:11:11;1.33;;;0.95;;
19547;SDS011;9919;58.014;11.826;2022-09-09T09:13:15;0.80;;;0.80;;
19547;SDS011;9919;58.014;11.826;2022-09-09T09:15:19;3.35;;;1.13;;
19547;SDS011;9919;58.014;11.826;2022-09-09T09:17:25;1.20;;;0.90;;
19547;SDS011;9919;58.014;11.826;2022-09-09T09:19:29;1.92;;;1.23;;
19547;SDS011;9919;58.014;11.826;2022-09-09T09:23:45;0.95;;;0.68;;
19547;SDS011;9919;58.014;11.826;2022-09-09T09:25:55;1.40;;;1.30;;
19547;SDS011;9919;58.014;11.826;2022-09-09T09:30:12;3.03;;;0.80;;
19547;SDS011;9919;58.014;11.826;2022-09-09T09:32:18;1.10;;;0.82;;
19547;SDS011;9919;58.014;11.826;2022-09-09T09:34:21;1.08;;;0.70;;
19547;SDS011;9919;58.014;11.826;2022-09-09T09:36:24;1.40;;;1.05;;
19547;SDS011;9919;58.014;11.826;2022-09-09T09:38:54;1.83;;;1.15;;
19547;SDS011;9919;58.014;11.826;2022-09-09T09:40:58;0.65;;;0.65;;
19547;SDS011;9919;58.014;11.826;2022-09-09T09:43:00;0.70;;;0.63;;
19547;SDS011;9919;58.014;11.826;2022-09-09T09:47:34;1.35;;;0.75;;
19547;SDS011;9919;58.014;11.826;2022-09-09T09:49:35;1.55;;;0.55;;
19547;SDS011;9919;58.014;11.826;2022-09-09T09:51:37;0.98;;;0.95;;
19547;SDS011;9919;58.014;11.826;2022-09-09T09:53:38;1.10;;;0.98;;
19547;SDS011;9919;58.014;11.826;2022-09-09T09:55:44;3.30;;;1.08;;
19547;SDS011;9919;58.014;11.826;2022-09-09T09:57:51;1.27;;;0.60;;
19547;SDS011;9919;58.014;11.826;2022-09-09T10:02:22;0.57;;;0.47;;
19547;SDS011;9919;58.014;11.826;2022-09-09T10:04:25;2.28;;;1.10;;
19547;SDS011;9919;58.014;11.826;2022-09-09T10:06:35;0.82;;;0.82;;
19547;SDS011;9919;58.014;11.826;2022-09-09T10:08:46;1.52;;;0.93;;
19547;SDS011;9919;58.014;11.826;2022-09-09T10:13:15;0.80;;;0.80;;
19547;SDS011;9919;58.014;11.826;2022-09-09T10:22:40;0.75;;;0.75;;
19547;SDS011;9919;58.014;11.826;2022-09-09T10:37:21;0.52;;;0.45;;
19547;SDS011;9919;58.014;11.826;2022-09-09T10:39:46;0.88;;;0.40;;
19547;SDS011;9919;58.014;11.826;2022-09-09T10:55:53;1.40;;;1.00;;
19547;SDS011;9919;58.014;11.826;2022-09-09T10:58:00;2.30;;;0.70;;
19547;SDS011;9919;58.014;11.826;2022-09-09T11:00:04;0.63;;;0.63;;
19547;SDS011;9919;58.014;11.826;2022-09-09T11:02:19;0.60;;;0.60;;
19547;SDS011;9919;58.014;11.826;2022-09-09T11:04:33;1.80;;;0.77;;
19547;SDS011;9919;58.014;11.826;2022-09-09T11:07:12;2.83;;;0.70;;
19547;SDS011;9919;58.014;11.826;2022-09-09T11:09:25;0.57;;;0.55;;
19547;SDS011;9919;58.014;11.826;2022-09-09T11:11:31;0.90;;;0.70;;
19547;SDS011;9919;58.014;11.826;2022-09-09T11:16:21;0.50;;;0.50;;
19547;SDS011;9919;58.014;11.826;2022-09-09T11:18:29;0.65;;;0.65;;
19547;SDS011;9919;58.014;11.826;2022-09-09T11:20:32;0.60;;;0.60;;
19547;SDS011;9919;58.014;11.826;2022-09-09T11:22:36;0.55;;;0.55;;
19547;SDS011;9919;58.014;11.826;2022-09-09T11:25:06;0.95;;;0.60;;
19547;SDS011;9919;58.014;11.826;2022-09-09T11:27:32;0.70;;;0.70;;
19547;SDS011;9919;58.014;11.826;2022-09-09T11:29:52;1.13;;;0.80;;
19547;SDS011;9919;58.014;11.826;2022-09-09T11:37:33;1.67;;;0.82;;
19547;SDS011;9919;58.014;11.826;2022-09-09T11:41:34;0.52;;;0.52;;
19547;SDS011;9919;58.014;11.826;2022-09-09T11:43:39;0.47;;;0.47;;
19547;SDS011;9919;58.014;11.826;2022-09-09T11:45:50;1.23;;;0.80;;
19547;SDS011;9919;58.014;11.826;2022-09-09T11:47:54;0.60;;;0.60;;
19547;SDS011;9919;58.014;11.826;2022-09-09T11:50:10;0.38;;;0.38;;
19547;SDS011;9919;58.014;11.826;2022-09-09T11:54:28;0.60;;;0.60;;
19547;SDS011;9919;58.014;11.826;2022-09-09T11:56:31;1.05;;;0.40;;
19547;SDS011;9919;58.014;11.826;2022-09-09T11:58:44;0.60;;;0.60;;
19547;SDS011;9919;58.014;11.826;2022-09-09T12:00:59;0.50;;;0.50;;
19547;SDS011;9919;58.014;11.826;2022-09-09T12:03:01;0.47;;;0.47;;
19547;SDS011;9919;58.014;11.826;2022-09-09T12:05:21;0.98;;;0.60;;
19547;SDS011;9919;58.014;11.826;2022-09-09T12:07:39;0.68;;;0.68;;
19547;SDS011;9919;58.014;11.826;2022-09-09T12:11:49;0.40;;;0.40;;
19547;SDS011;9919;58.014;11.826;2022-09-09T12:13:54;1.35;;;0.75;;
19547;SDS011;9919;58.014;11.826;2022-09-09T12:15:58;0.60;;;0.60;;
19547;SDS011;9919;58.014;11.826;2022-09-09T12:18:02;1.48;;;0.88;;
19547;SDS011;9919;58.014;11.826;2022-09-09T12:22:33;0.40;;;0.40;;
19547;SDS011;9919;58.014;11.826;2022-09-09T12:29:25;0.73;;;0.52;;
19547;SDS011;9919;58.014;11.826;2022-09-09T12:36:35;0.30;;;0.30;;
19547;SDS011;9919;58.014;11.826;2022-09-09T12:38:41;3.35;;;0.38;;
19547;SDS011;9919;58.014;11.826;2022-09-09T12:40:53;0.35;;;0.35;;
19547;SDS011;9919;58.014;11.826;2022-09-09T12:42:55;0.38;;;0.38;;
19547;SDS011;9919;58.014;11.826;2022-09-09T12:44:58;0.55;;;0.55;;
19547;SDS011;9919;58.014;11.826;2022-09-09T12:47:01;0.52;;;0.52;;
19547;SDS011;9919;58.014;11.826;2022-09-09T12:49:04;2.03;;;0.77;;
19547;SDS011;9919;58.014;11.826;2022-09-09T12:51:14;0.50;;;0.50;;
19547;SDS011;9919;58.014;11.826;2022-09-09T12:53:30;0.30;;;0.30;;
19547;SDS011;9919;58.014;11.826;2022-09-09T12:55:35;3.50;;;0.75;;
19547;SDS011;9919;58.014;11.826;2022-09-09T12:57:38;0.63;;;0.63;;
19547;SDS011;9919;58.014;11.826;2022-09-09T12:59:42;0.60;;;0.60;;
19547;SDS011;9919;58.014;11.826;2022-09-09T13:01:54;0.50;;;0.50;;
19547;SDS011;9919;58.014;11.826;2022-09-09T13:03:59;0.50;;;0.50;;
19547;SDS011;9919;58.014;11.826;2022-09-09T13:06:11;0.60;;;0.60;;
19547;SDS011;9919;58.014;11.826;2022-09-09T13:08:17;0.40;;;0.40;;
19547;SDS011;9919;58.014;11.826;2022-09-09T13:10:27;0.57;;;0.57;;
19547;SDS011;9919;58.014;11.826;2022-09-09T13:12:31;0.50;;;0.50;;
19547;SDS011;9919;58.014;11.826;2022-09-09T13:14:33;0.50;;;0.50;;
19547;SDS011;9919;58.014;11.826;2022-09-09T13:16:37;0.65;;;0.50;;
19547;SDS011;9919;58.014;11.826;2022-09-09T13:18:40;0.60;;;0.60;;
19547;SDS011;9919;58.014;11.826;2022-09-09T13:20:46;1.55;;;0.80;;
19547;SDS011;9919;58.014;11.826;2022-09-09T13:22:49;0.85;;;0.55;;
19547;SDS011;9919;58.014;11.826;2022-09-09T13:25:26;0.40;;;0.40;;
19547;SDS011;9919;58.014;11.826;2022-09-09T13:29:31;0.57;;;0.57;;
19547;SDS011;9919;58.014;11.826;2022-09-09T13:31:35;0.70;;;0.70;;
19547;SDS011;9919;58.014;11.826;2022-09-09T13:33:38;0.60;;;0.60;;
19547;SDS011;9919;58.014;11.826;2022-09-09T13:37:57;1.02;;;0.80;;
19547;SDS011;9919;58.014;11.826;2022-09-09T13:40:00;0.60;;;0.60;;
19547;SDS011;9919;58.014;11.826;2022-09-09T13:42:02;0.50;;;0.50;;
19547;SDS011;9919;58.014;11.826;2022-09-09T13:44:04;0.93;;;0.73;;
19547;SDS011;9919;58.014;11.826;2022-09-09T13:46:25;0.80;;;0.60;;
19547;SDS011;9919;58.014;11.826;2022-09-09T13:48:41;0.40;;;0.40;;
19547;SDS011;9919;58.014;11.826;2022-09-09T13:50:42;2.03;;;0.60;;
19547;SDS011;9919;58.014;11.826;2022-09-09T13:52:56;2.25;;;0.90;;
19547;SDS011;9919;58.014;11.826;2022-09-09T13:54:58;0.43;;;0.43;;
19547;SDS011;9919;58.014;11.826;2022-09-09T13:57:01;0.80;;;0.60;;
19547;SDS011;9919;58.014;11.826;2022-09-09T13:59:05;0.73;;;0.57;;
19547;SDS011;9919;58.014;11.826;2022-09-09T14:01:09;0.50;;;0.50;;
19547;SDS011;9919;58.014;11.826;2022-09-09T14:03:11;0.43;;;0.40;;
19547;SDS011;9919;58.014;11.826;2022-09-09T14:05:14;0.57;;;0.52;;
19547;SDS011;9919;58.014;11.826;2022-09-09T14:07:16;1.05;;;0.43;;
19547;SDS011;9919;58.014;11.826;2022-09-09T14:09:18;0.30;;;0.30;;
19547;SDS011;9919;58.014;11.826;2022-09-09T14:11:20;0.70;;;0.70;;
19547;SDS011;9919;58.014;11.826;2022-09-09T14:13:21;0.52;;;0.40;;
19547;SDS011;9919;58.014;11.826;2022-09-09T14:15:23;1.30;;;0.60;;
19547;SDS011;9919;58.014;11.826;2022-09-09T14:17:24;0.50;;;0.38;;
19547;SDS011;9919;58.014;11.826;2022-09-09T14:19:29;0.63;;;0.45;;
19547;SDS011;9919;58.014;11.826;2022-09-09T14:21:31;0.30;;;0.30;;
19547;SDS011;9919;58.014;11.826;2022-09-09T14:23:32;0.50;;;0.50;;
19547;SDS011;9919;58.014;11.826;2022-09-09T14:25:34;0.52;;;0.52;;
19547;SDS011;9919;58.014;11.826;2022-09-09T14:27:36;0.85;;;0.65;;
19547;SDS011;9919;58.014;11.826;2022-09-09T14:29:39;0.52;;;0.52;;
19547;SDS011;9919;58.014;11.826;2022-09-09T14:31:40;0.57;;;0.57;;
19547;SDS011;9919;58.014;11.826;2022-09-09T14:33:43;0.40;;;0.40;;
19547;SDS011;9919;58.014;11.826;2022-09-09T14:35:45;1.10;;;0.80;;
19547;SDS011;9919;58.014;11.826;2022-09-09T14:37:46;1.27;;;0.65;;
19547;SDS011;9919;58.014;11.826;2022-09-09T14:39:48;0.52;;;0.52;;
19547;SDS011;9919;58.014;11.826;2022-09-09T14:41:50;0.95;;;0.60;;
19547;SDS011;9919;58.014;11.826;2022-09-09T14:43:52;0.40;;;0.40;;